sensor_id;sensor_type;location;lat;lon;timestamp;temperature;humidity
24144;DHT22;12307;50.828;6.080;2024-01-10T00:00:55;15.00;52.20
24144;DHT22;12307;50.828;6.080;2024-01-10T00:03:21;15.00;52.20
24144;DHT22;12307;50.828;6.080;2024-01-10T00:05:48;15.00;52.20
24144;DHT22;12307;50.828;6.080;2024-01-10T00:08:14;15.00;52.20
24144;DHT22;12307;50.828;6.080;2024-01-10T00:10:39;14.90;52.20
24144;DHT22;12307;50.828;6.080;2024-01-10T00:13:05;14.90;52.20
24144;DHT22;12307;50.828;6.080;2024-01-10T00:15:31;14.90;52.20
24144;DHT22;12307;50.828;6.080;2024-01-10T00:17:56;14.90;52.20
24144;DHT22;12307;50.828;6.080;2024-01-10T00:20:22;14.90;52.10
24144;DHT22;12307;50.828;6.080;2024-01-10T00:22:49;14.90;52.20
24144;DHT22;12307;50.828;6.080;2024-01-10T00:25:15;14.90;52.20
24144;DHT22;12307;50.828;6.080;2024-01-10T00:27:41;14.90;52.20
24144;DHT22;12307;50.828;6.080;2024-01-10T00:30:07;14.90;52.20
24144;DHT22;12307;50.828;6.080;2024-01-10T00:32:34;14.90;52.20
24144;DHT22;12307;50.828;6.080;2024-01-10T00:34:59;14.90;52.20
24144;DHT22;12307;50.828;6.080;2024-01-10T00:37:27;14.90;52.20
24144;DHT22;12307;50.828;6.080;2024-01-10T00:39:54;14.90;52.20
24144;DHT22;12307;50.828;6.080;2024-01-10T00:42:19;14.90;52.20
24144;DHT22;12307;50.828;6.080;2024-01-10T00:44:45;14.90;52.20
24144;DHT22;12307;50.828;6.080;2024-01-10T00:47:11;14.90;52.20
24144;DHT22;12307;50.828;6.080;2024-01-10T00:49:37;14.90;52.20
24144;DHT22;12307;50.828;6.080;2024-01-10T00:52:03;14.90;52.20
24144;DHT22;12307;50.828;6.080;2024-01-10T00:54:29;14.90;52.20
24144;DHT22;12307;50.828;6.080;2024-01-10T00:56:56;14.90;52.20
24144;DHT22;12307;50.828;6.080;2024-01-10T00:59:22;14.90;52.10
24144;DHT22;12307;50.828;6.080;2024-01-10T01:01:47;14.90;52.20
24144;DHT22;12307;50.828;6.080;2024-01-10T01:04:13;14.90;52.20
24144;DHT22;12307;50.828;6.080;2024-01-10T01:06:39;14.90;52.20
24144;DHT22;12307;50.828;6.080;2024-01-10T01:09:05;14.90;52.20
24144;DHT22;12307;50.828;6.080;2024-01-10T01:11:30;14.90;52.20
24144;DHT22;12307;50.828;6.080;2024-01-10T01:13:57;14.90;52.20
24144;DHT22;12307;50.828;6.080;2024-01-10T01:16:23;14.90;52.20
24144;DHT22;12307;50.828;6.080;2024-01-10T01:18:49;14.90;52.20
24144;DHT22;12307;50.828;6.080;2024-01-10T01:21:14;14.90;52.20
24144;DHT22;12307;50.828;6.080;2024-01-10T01:23:40;14.90;52.10
24144;DHT22;12307;50.828;6.080;2024-01-10T01:26:06;14.90;52.10
24144;DHT22;12307;50.828;6.080;2024-01-10T01:28:32;14.90;52.10
24144;DHT22;12307;50.828;6.080;2024-01-10T01:30:59;14.90;52.10
24144;DHT22;12307;50.828;6.080;2024-01-10T01:33:24;14.80;52.10
24144;DHT22;12307;50.828;6.080;2024-01-10T01:35:50;14.80;52.10
24144;DHT22;12307;50.828;6.080;2024-01-10T01:38:17;14.80;52.10
24144;DHT22;12307;50.828;6.080;2024-01-10T01:40:43;14.80;52.10
24144;DHT22;12307;50.828;6.080;2024-01-10T01:43:22;14.80;52.10
24144;DHT22;12307;50.828;6.080;2024-01-10T01:45:51;14.80;52.10
24144;DHT22;12307;50.828;6.080;2024-01-10T01:48:19;14.80;52.10
24144;DHT22;12307;50.828;6.080;2024-01-10T01:50:45;14.80;52.10
24144;DHT22;12307;50.828;6.080;2024-01-10T01:53:12;14.80;52.10
24144;DHT22;12307;50.828;6.080;2024-01-10T01:55:38;14.80;52.10
24144;DHT22;12307;50.828;6.080;2024-01-10T01:58:04;14.80;52.10
24144;DHT22;12307;50.828;6.080;2024-01-10T02:00:29;14.80;52.00
24144;DHT22;12307;50.828;6.080;2024-01-10T02:02:57;14.80;52.10
24144;DHT22;12307;50.828;6.080;2024-01-10T02:05:26;14.80;52.10
24144;DHT22;12307;50.828;6.080;2024-01-10T02:07:52;14.80;52.10
24144;DHT22;12307;50.828;6.080;2024-01-10T02:10:19;14.80;52.10
24144;DHT22;12307;50.828;6.080;2024-01-10T02:12:44;14.80;52.10
24144;DHT22;12307;50.828;6.080;2024-01-10T02:15:11;14.80;52.10
24144;DHT22;12307;50.828;6.080;2024-01-10T02:17:37;14.80;52.10
24144;DHT22;12307;50.828;6.080;2024-01-10T02:20:09;14.80;52.10
24144;DHT22;12307;50.828;6.080;2024-01-10T02:22:36;14.80;52.10
24144;DHT22;12307;50.828;6.080;2024-01-10T02:25:04;14.80;52.00
24144;DHT22;12307;50.828;6.080;2024-01-10T02:27:30;14.80;52.10
24144;DHT22;12307;50.828;6.080;2024-01-10T02:29:57;14.80;52.00
24144;DHT22;12307;50.828;6.080;2024-01-10T02:32:24;14.80;52.00
24144;DHT22;12307;50.828;6.080;2024-01-10T02:34:50;14.80;52.00
24144;DHT22;12307;50.828;6.080;2024-01-10T02:37:15;14.80;52.00
24144;DHT22;12307;50.828;6.080;2024-01-10T02:39:41;14.80;52.00
24144;DHT22;12307;50.828;6.080;2024-01-10T02:42:08;14.80;51.90
24144;DHT22;12307;50.828;6.080;2024-01-10T02:44:34;14.80;51.90
24144;DHT22;12307;50.828;6.080;2024-01-10T02:47:00;14.80;51.90
24144;DHT22;12307;50.828;6.080;2024-01-10T02:49:25;14.80;51.90
24144;DHT22;12307;50.828;6.080;2024-01-10T02:51:51;14.80;51.90
24144;DHT22;12307;50.828;6.080;2024-01-10T02:54:17;14.80;51.90
24144;DHT22;12307;50.828;6.080;2024-01-10T02:56:42;14.80;51.90
24144;DHT22;12307;50.828;6.080;2024-01-10T02:59:09;14.80;51.80
24144;DHT22;12307;50.828;6.080;2024-01-10T03:01:35;14.80;51.80
24144;DHT22;12307;50.828;6.080;2024-01-10T03:04:01;14.80;51.90
24144;DHT22;12307;50.828;6.080;2024-01-10T03:06:26;14.80;51.80
24144;DHT22;12307;50.828;6.080;2024-01-10T03:08:52;14.80;51.80
24144;DHT22;12307;50.828;6.080;2024-01-10T03:11:18;14.80;51.80
24144;DHT22;12307;50.828;6.080;2024-01-10T03:13:44;14.70;51.80
24144;DHT22;12307;50.828;6.080;2024-01-10T03:16:12;14.80;51.80
24144;DHT22;12307;50.828;6.080;2024-01-10T03:18:38;14.80;51.80
24144;DHT22;12307;50.828;6.080;2024-01-10T03:21:04;14.80;51.80
24144;DHT22;12307;50.828;6.080;2024-01-10T03:23:30;14.70;51.80
24144;DHT22;12307;50.828;6.080;2024-01-10T03:25:56;14.70;51.80
24144;DHT22;12307;50.828;6.080;2024-01-10T03:28:22;14.70;51.70
24144;DHT22;12307;50.828;6.080;2024-01-10T03:30:48;14.70;51.70
24144;DHT22;12307;50.828;6.080;2024-01-10T03:33:15;14.70;51.70
24144;DHT22;12307;50.828;6.080;2024-01-10T03:35:41;14.80;51.70
24144;DHT22;12307;50.828;6.080;2024-01-10T03:38:07;14.70;51.70
24144;DHT22;12307;50.828;6.080;2024-01-10T03:40:32;14.70;51.80
24144;DHT22;12307;50.828;6.080;2024-01-10T03:42:58;14.70;51.70
24144;DHT22;12307;50.828;6.080;2024-01-10T03:45:24;14.70;51.70
24144;DHT22;12307;50.828;6.080;2024-01-10T03:47:49;14.70;51.70
24144;DHT22;12307;50.828;6.080;2024-01-10T03:50:18;14.70;51.70
24144;DHT22;12307;50.828;6.080;2024-01-10T03:52:44;14.70;51.70
24144;DHT22;12307;50.828;6.080;2024-01-10T03:55:11;14.70;51.70
24144;DHT22;12307;50.828;6.080;2024-01-10T03:57:38;14.70;52.30
24144;DHT22;12307;50.828;6.080;2024-01-10T04:00:05;14.70;51.70
24144;DHT22;12307;50.828;6.080;2024-01-10T04:02:31;14.70;51.70
24144;DHT22;12307;50.828;6.080;2024-01-10T04:04:57;14.70;51.70
24144;DHT22;12307;50.828;6.080;2024-01-10T04:07:26;14.70;51.70
24144;DHT22;12307;50.828;6.080;2024-01-10T04:09:52;14.70;51.60
24144;DHT22;12307;50.828;6.080;2024-01-10T04:12:17;14.70;51.60
24144;DHT22;12307;50.828;6.080;2024-01-10T04:14:43;14.70;51.60
24144;DHT22;12307;50.828;6.080;2024-01-10T04:17:09;14.70;51.60
24144;DHT22;12307;50.828;6.080;2024-01-10T04:19:34;14.70;51.60
24144;DHT22;12307;50.828;6.080;2024-01-10T04:22:00;14.70;51.60
24144;DHT22;12307;50.828;6.080;2024-01-10T04:24:27;14.70;51.60
24144;DHT22;12307;50.828;6.080;2024-01-10T04:26:53;14.70;51.60
24144;DHT22;12307;50.828;6.080;2024-01-10T04:29:18;14.70;51.60
24144;DHT22;12307;50.828;6.080;2024-01-10T04:31:44;14.70;51.60
24144;DHT22;12307;50.828;6.080;2024-01-10T04:34:11;14.70;51.60
24144;DHT22;12307;50.828;6.080;2024-01-10T04:36:37;14.70;51.60
24144;DHT22;12307;50.828;6.080;2024-01-10T04:39:02;14.70;51.60
24144;DHT22;12307;50.828;6.080;2024-01-10T04:41:29;14.70;51.60
24144;DHT22;12307;50.828;6.080;2024-01-10T04:43:55;14.70;51.50
24144;DHT22;12307;50.828;6.080;2024-01-10T04:46:21;14.70;51.50
24144;DHT22;12307;50.828;6.080;2024-01-10T04:48:47;14.70;51.50
24144;DHT22;12307;50.828;6.080;2024-01-10T04:51:13;14.70;51.50
24144;DHT22;12307;50.828;6.080;2024-01-10T04:53:40;14.70;51.50
24144;DHT22;12307;50.828;6.080;2024-01-10T04:56:06;14.60;51.50
24144;DHT22;12307;50.828;6.080;2024-01-10T04:58:33;14.70;51.50
24144;DHT22;12307;50.828;6.080;2024-01-10T05:00:59;14.60;51.50
24144;DHT22;12307;50.828;6.080;2024-01-10T05:03:25;14.60;51.50
24144;DHT22;12307;50.828;6.080;2024-01-10T05:05:51;14.60;51.50
24144;DHT22;12307;50.828;6.080;2024-01-10T05:08:17;14.60;51.50
24144;DHT22;12307;50.828;6.080;2024-01-10T05:10:45;14.60;51.50
24144;DHT22;12307;50.828;6.080;2024-01-10T05:13:12;14.60;51.50
24144;DHT22;12307;50.828;6.080;2024-01-10T05:15:39;14.60;51.50
24144;DHT22;12307;50.828;6.080;2024-01-10T05:18:05;14.70;51.50
24144;DHT22;12307;50.828;6.080;2024-01-10T05:20:30;14.60;51.40
24144;DHT22;12307;50.828;6.080;2024-01-10T05:22:57;14.60;51.40
24144;DHT22;12307;50.828;6.080;2024-01-10T05:25:24;14.60;51.40
24144;DHT22;12307;50.828;6.080;2024-01-10T05:27:50;14.60;51.40
24144;DHT22;12307;50.828;6.080;2024-01-10T05:30:15;14.60;51.40
24144;DHT22;12307;50.828;6.080;2024-01-10T05:32:43;14.60;51.40
24144;DHT22;12307;50.828;6.080;2024-01-10T05:35:09;14.60;51.50
24144;DHT22;12307;50.828;6.080;2024-01-10T05:37:35;14.70;51.50
24144;DHT22;12307;50.828;6.080;2024-01-10T05:40:01;14.60;51.40
24144;DHT22;12307;50.828;6.080;2024-01-10T05:42:27;14.60;51.40
24144;DHT22;12307;50.828;6.080;2024-01-10T05:44:53;14.60;51.40
24144;DHT22;12307;50.828;6.080;2024-01-10T05:47:19;14.60;51.40
24144;DHT22;12307;50.828;6.080;2024-01-10T05:49:46;14.60;51.40
24144;DHT22;12307;50.828;6.080;2024-01-10T05:52:11;14.60;51.40
24144;DHT22;12307;50.828;6.080;2024-01-10T05:54:38;14.60;51.40
24144;DHT22;12307;50.828;6.080;2024-01-10T05:57:04;14.60;51.40
24144;DHT22;12307;50.828;6.080;2024-01-10T05:59:29;14.60;51.40
24144;DHT22;12307;50.828;6.080;2024-01-10T06:01:56;14.60;51.40
24144;DHT22;12307;50.828;6.080;2024-01-10T06:04:22;14.60;51.30
24144;DHT22;12307;50.828;6.080;2024-01-10T06:06:49;14.60;51.30
24144;DHT22;12307;50.828;6.080;2024-01-10T06:09:14;14.60;51.40
24144;DHT22;12307;50.828;6.080;2024-01-10T06:11:41;14.60;51.40
24144;DHT22;12307;50.828;6.080;2024-01-10T06:14:07;14.60;51.30
24144;DHT22;12307;50.828;6.080;2024-01-10T06:16:33;14.60;51.30
24144;DHT22;12307;50.828;6.080;2024-01-10T06:18:58;14.60;51.40
24144;DHT22;12307;50.828;6.080;2024-01-10T06:21:25;14.60;51.40
24144;DHT22;12307;50.828;6.080;2024-01-10T06:23:52;14.60;51.30
24144;DHT22;12307;50.828;6.080;2024-01-10T06:26:18;14.60;51.30
24144;DHT22;12307;50.828;6.080;2024-01-10T06:28:43;14.60;51.30
24144;DHT22;12307;50.828;6.080;2024-01-10T06:31:09;14.60;51.40
24144;DHT22;12307;50.828;6.080;2024-01-10T06:33:35;14.60;51.40
24144;DHT22;12307;50.828;6.080;2024-01-10T06:36:00;14.60;51.40
24144;DHT22;12307;50.828;6.080;2024-01-10T06:38:26;14.60;51.40
24144;DHT22;12307;50.828;6.080;2024-01-10T06:40:53;14.60;51.40
24144;DHT22;12307;50.828;6.080;2024-01-10T06:43:19;14.60;51.40
24144;DHT22;12307;50.828;6.080;2024-01-10T06:45:45;14.60;51.40
24144;DHT22;12307;50.828;6.080;2024-01-10T06:48:10;14.60;51.50
24144;DHT22;12307;50.828;6.080;2024-01-10T06:50:37;14.60;51.50
24144;DHT22;12307;50.828;6.080;2024-01-10T06:53:02;14.50;51.40
24144;DHT22;12307;50.828;6.080;2024-01-10T06:55:29;14.50;51.40
24144;DHT22;12307;50.828;6.080;2024-01-10T06:57:56;14.50;51.50
24144;DHT22;12307;50.828;6.080;2024-01-10T07:00:22;14.50;51.50
24144;DHT22;12307;50.828;6.080;2024-01-10T07:02:48;14.50;51.50
24144;DHT22;12307;50.828;6.080;2024-01-10T07:05:14;14.50;51.50
24144;DHT22;12307;50.828;6.080;2024-01-10T07:07:40;14.50;51.50
24144;DHT22;12307;50.828;6.080;2024-01-10T07:10:06;14.50;51.50
24144;DHT22;12307;50.828;6.080;2024-01-10T07:12:33;14.50;51.50
24144;DHT22;12307;50.828;6.080;2024-01-10T07:15:00;14.50;51.50
24144;DHT22;12307;50.828;6.080;2024-01-10T07:17:28;14.50;51.40
24144;DHT22;12307;50.828;6.080;2024-01-10T07:19:54;14.50;51.40
24144;DHT22;12307;50.828;6.080;2024-01-10T07:22:22;14.50;51.30
24144;DHT22;12307;50.828;6.080;2024-01-10T07:24:47;14.50;51.40
24144;DHT22;12307;50.828;6.080;2024-01-10T07:27:13;14.50;51.40
24144;DHT22;12307;50.828;6.080;2024-01-10T07:29:40;14.50;51.40
24144;DHT22;12307;50.828;6.080;2024-01-10T07:32:07;14.50;51.40
24144;DHT22;12307;50.828;6.080;2024-01-10T07:34:36;14.50;51.40
24144;DHT22;12307;50.828;6.080;2024-01-10T07:37:02;14.50;51.40
24144;DHT22;12307;50.828;6.080;2024-01-10T07:39:29;14.50;51.40
24144;DHT22;12307;50.828;6.080;2024-01-10T07:41:54;14.50;51.40
24144;DHT22;12307;50.828;6.080;2024-01-10T07:44:20;14.50;51.40
24144;DHT22;12307;50.828;6.080;2024-01-10T07:46:46;14.50;51.30
24144;DHT22;12307;50.828;6.080;2024-01-10T07:49:13;14.50;51.40
24144;DHT22;12307;50.828;6.080;2024-01-10T07:51:42;14.50;52.00
24144;DHT22;12307;50.828;6.080;2024-01-10T07:54:07;14.50;51.40
24144;DHT22;12307;50.828;6.080;2024-01-10T07:56:33;14.50;51.40
24144;DHT22;12307;50.828;6.080;2024-01-10T07:58:59;14.50;51.40
24144;DHT22;12307;50.828;6.080;2024-01-10T08:01:25;14.50;51.50
24144;DHT22;12307;50.828;6.080;2024-01-10T08:03:51;14.50;51.50
24144;DHT22;12307;50.828;6.080;2024-01-10T08:06:18;14.40;51.50
24144;DHT22;12307;50.828;6.080;2024-01-10T08:08:44;14.40;51.70
24144;DHT22;12307;50.828;6.080;2024-01-10T08:11:10;14.40;51.90
24144;DHT22;12307;50.828;6.080;2024-01-10T08:13:35;14.40;52.00
24144;DHT22;12307;50.828;6.080;2024-01-10T08:16:02;14.40;52.00
24144;DHT22;12307;50.828;6.080;2024-01-10T08:18:29;14.40;52.10
24144;DHT22;12307;50.828;6.080;2024-01-10T08:20:55;14.40;52.10
24144;DHT22;12307;50.828;6.080;2024-01-10T08:23:22;14.30;52.10
24144;DHT22;12307;50.828;6.080;2024-01-10T08:25:48;14.30;52.10
24144;DHT22;12307;50.828;6.080;2024-01-10T08:28:14;14.30;52.20
24144;DHT22;12307;50.828;6.080;2024-01-10T08:30:40;14.30;52.20
24144;DHT22;12307;50.828;6.080;2024-01-10T08:33:05;14.30;52.10
24144;DHT22;12307;50.828;6.080;2024-01-10T08:35:32;14.30;52.10
24144;DHT22;12307;50.828;6.080;2024-01-10T08:37:58;14.30;52.20
24144;DHT22;12307;50.828;6.080;2024-01-10T08:40:25;14.30;52.30
24144;DHT22;12307;50.828;6.080;2024-01-10T08:42:51;14.30;52.30
24144;DHT22;12307;50.828;6.080;2024-01-10T08:45:16;14.30;52.40
24144;DHT22;12307;50.828;6.080;2024-01-10T08:47:42;14.30;52.50
24144;DHT22;12307;50.828;6.080;2024-01-10T08:50:09;14.30;52.50
24144;DHT22;12307;50.828;6.080;2024-01-10T08:52:35;14.20;52.60
24144;DHT22;12307;50.828;6.080;2024-01-10T08:55:05;14.30;52.60
24144;DHT22;12307;50.828;6.080;2024-01-10T08:57:32;14.30;52.70
24144;DHT22;12307;50.828;6.080;2024-01-10T08:59:58;14.20;52.60
24144;DHT22;12307;50.828;6.080;2024-01-10T09:02:24;14.30;52.70
24144;DHT22;12307;50.828;6.080;2024-01-10T09:04:49;14.20;52.70
24144;DHT22;12307;50.828;6.080;2024-01-10T09:07:16;14.30;52.80
24144;DHT22;12307;50.828;6.080;2024-01-10T09:09:43;14.30;52.80
24144;DHT22;12307;50.828;6.080;2024-01-10T09:12:09;14.30;52.90
24144;DHT22;12307;50.828;6.080;2024-01-10T09:14:36;14.30;52.80
24144;DHT22;12307;50.828;6.080;2024-01-10T09:17:02;14.30;52.90
24144;DHT22;12307;50.828;6.080;2024-01-10T09:19:30;14.30;52.90
24144;DHT22;12307;50.828;6.080;2024-01-10T09:21:56;14.30;52.90
24144;DHT22;12307;50.828;6.080;2024-01-10T09:24:23;14.30;53.00
24144;DHT22;12307;50.828;6.080;2024-01-10T09:26:49;14.30;52.90
24144;DHT22;12307;50.828;6.080;2024-01-10T09:29:15;14.30;53.00
24144;DHT22;12307;50.828;6.080;2024-01-10T09:31:42;14.30;52.90
24144;DHT22;12307;50.828;6.080;2024-01-10T09:34:07;14.40;52.90
24144;DHT22;12307;50.828;6.080;2024-01-10T09:36:33;14.40;52.80
24144;DHT22;12307;50.828;6.080;2024-01-10T09:38:59;14.40;52.80
24144;DHT22;12307;50.828;6.080;2024-01-10T09:41:27;14.40;52.80
24144;DHT22;12307;50.828;6.080;2024-01-10T09:43:53;14.40;52.70
24144;DHT22;12307;50.828;6.080;2024-01-10T09:46:19;14.40;52.60
24144;DHT22;12307;50.828;6.080;2024-01-10T09:48:46;14.50;52.60
24144;DHT22;12307;50.828;6.080;2024-01-10T09:51:12;14.50;52.60
24144;DHT22;12307;50.828;6.080;2024-01-10T09:53:41;14.50;52.60
24144;DHT22;12307;50.828;6.080;2024-01-10T09:56:09;14.50;52.60
24144;DHT22;12307;50.828;6.080;2024-01-10T09:58:35;14.50;52.50
24144;DHT22;12307;50.828;6.080;2024-01-10T10:01:05;14.50;52.60
24144;DHT22;12307;50.828;6.080;2024-01-10T10:03:32;14.50;52.50
24144;DHT22;12307;50.828;6.080;2024-01-10T10:06:03;14.50;52.50
24144;DHT22;12307;50.828;6.080;2024-01-10T10:08:30;14.50;52.40
24144;DHT22;12307;50.828;6.080;2024-01-10T10:10:56;14.60;52.50
24144;DHT22;12307;50.828;6.080;2024-01-10T10:13:25;14.60;52.40
24144;DHT22;12307;50.828;6.080;2024-01-10T10:15:58;14.60;52.50
24144;DHT22;12307;50.828;6.080;2024-01-10T10:18:24;14.60;52.50
24144;DHT22;12307;50.828;6.080;2024-01-10T10:21:08;14.60;52.40
24144;DHT22;12307;50.828;6.080;2024-01-10T10:23:34;14.60;52.40
24144;DHT22;12307;50.828;6.080;2024-01-10T10:26:10;14.60;52.40
24144;DHT22;12307;50.828;6.080;2024-01-10T10:28:36;14.60;52.30
24144;DHT22;12307;50.828;6.080;2024-01-10T10:31:03;14.60;52.30
24144;DHT22;12307;50.828;6.080;2024-01-10T10:33:32;14.60;52.30
24144;DHT22;12307;50.828;6.080;2024-01-10T10:35:58;14.60;52.30
24144;DHT22;12307;50.828;6.080;2024-01-10T10:38:25;14.60;52.30
24144;DHT22;12307;50.828;6.080;2024-01-10T10:40:51;14.70;52.30
24144;DHT22;12307;50.828;6.080;2024-01-10T10:43:18;14.70;52.30
24144;DHT22;12307;50.828;6.080;2024-01-10T10:45:47;14.70;52.30
24144;DHT22;12307;50.828;6.080;2024-01-10T10:48:17;14.80;52.50
24144;DHT22;12307;50.828;6.080;2024-01-10T10:50:50;14.80;52.40
24144;DHT22;12307;50.828;6.080;2024-01-10T10:53:20;14.80;52.40
24144;DHT22;12307;50.828;6.080;2024-01-10T10:55:48;14.90;52.40
24144;DHT22;12307;50.828;6.080;2024-01-10T10:58:15;14.90;52.50
24144;DHT22;12307;50.828;6.080;2024-01-10T11:00:41;14.90;52.50
24144;DHT22;12307;50.828;6.080;2024-01-10T11:03:10;14.90;52.40
24144;DHT22;12307;50.828;6.080;2024-01-10T11:05:40;15.00;52.40
24144;DHT22;12307;50.828;6.080;2024-01-10T11:08:08;15.00;52.30
24144;DHT22;12307;50.828;6.080;2024-01-10T11:10:39;15.10;52.30
24144;DHT22;12307;50.828;6.080;2024-01-10T11:13:26;15.10;52.30
24144;DHT22;12307;50.828;6.080;2024-01-10T11:16:24;15.10;52.20
24144;DHT22;12307;50.828;6.080;2024-01-10T11:19:14;15.20;52.20
24144;DHT22;12307;50.828;6.080;2024-01-10T11:21:55;15.20;52.10
24144;DHT22;12307;50.828;6.080;2024-01-10T11:24:23;15.20;52.10
24144;DHT22;12307;50.828;6.080;2024-01-10T11:26:49;15.20;52.10
24144;DHT22;12307;50.828;6.080;2024-01-10T11:29:16;15.30;52.10
24144;DHT22;12307;50.828;6.080;2024-01-10T11:31:50;15.30;52.10
24144;DHT22;12307;50.828;6.080;2024-01-10T11:34:16;15.30;52.10
24144;DHT22;12307;50.828;6.080;2024-01-10T11:37:10;15.30;52.20
24144;DHT22;12307;50.828;6.080;2024-01-10T11:39:36;15.30;52.30
24144;DHT22;12307;50.828;6.080;2024-01-10T11:42:03;15.30;52.40
24144;DHT22;12307;50.828;6.080;2024-01-10T11:44:30;15.40;52.50
24144;DHT22;12307;50.828;6.080;2024-01-10T11:46:58;15.30;52.70
24144;DHT22;12307;50.828;6.080;2024-01-10T11:49:24;15.30;52.80
24144;DHT22;12307;50.828;6.080;2024-01-10T11:51:53;15.30;52.90
24144;DHT22;12307;50.828;6.080;2024-01-10T11:54:38;15.30;53.00
24144;DHT22;12307;50.828;6.080;2024-01-10T11:57:13;15.40;53.20
24144;DHT22;12307;50.828;6.080;2024-01-10T11:59:41;15.30;53.20
24144;DHT22;12307;50.828;6.080;2024-01-10T12:02:08;15.30;53.30
24144;DHT22;12307;50.828;6.080;2024-01-10T12:04:34;15.30;53.30
24144;DHT22;12307;50.828;6.080;2024-01-10T12:07:02;15.40;53.40
24144;DHT22;12307;50.828;6.080;2024-01-10T12:09:29;15.40;53.20
24144;DHT22;12307;50.828;6.080;2024-01-10T12:11:55;15.50;53.30
24144;DHT22;12307;50.828;6.080;2024-01-10T12:14:21;15.50;53.20
24144;DHT22;12307;50.828;6.080;2024-01-10T12:16:50;15.50;53.10
24144;DHT22;12307;50.828;6.080;2024-01-10T12:19:17;15.60;53.10
24144;DHT22;12307;50.828;6.080;2024-01-10T12:21:43;15.60;53.00
24144;DHT22;12307;50.828;6.080;2024-01-10T12:24:08;15.60;53.00
24144;DHT22;12307;50.828;6.080;2024-01-10T12:26:34;15.60;52.90
24144;DHT22;12307;50.828;6.080;2024-01-10T12:29:02;15.60;52.90
24144;DHT22;12307;50.828;6.080;2024-01-10T12:31:31;15.60;52.90
24144;DHT22;12307;50.828;6.080;2024-01-10T12:33:58;15.60;52.90
24144;DHT22;12307;50.828;6.080;2024-01-10T12:36:24;15.70;52.90
24144;DHT22;12307;50.828;6.080;2024-01-10T12:38:50;15.70;52.90
24144;DHT22;12307;50.828;6.080;2024-01-10T12:41:18;15.70;52.90
24144;DHT22;12307;50.828;6.080;2024-01-10T12:43:47;15.70;52.90
24144;DHT22;12307;50.828;6.080;2024-01-10T12:46:13;15.70;52.80
24144;DHT22;12307;50.828;6.080;2024-01-10T12:48:40;15.70;52.80
24144;DHT22;12307;50.828;6.080;2024-01-10T12:51:08;15.80;52.90
24144;DHT22;12307;50.828;6.080;2024-01-10T12:53:35;15.80;52.90
24144;DHT22;12307;50.828;6.080;2024-01-10T12:56:01;15.80;52.90
24144;DHT22;12307;50.828;6.080;2024-01-10T12:58:27;15.80;52.80
24144;DHT22;12307;50.828;6.080;2024-01-10T13:00:53;15.80;52.80
24144;DHT22;12307;50.828;6.080;2024-01-10T13:03:19;15.80;52.80
24144;DHT22;12307;50.828;6.080;2024-01-10T13:05:45;15.80;52.80
24144;DHT22;12307;50.828;6.080;2024-01-10T13:08:12;15.80;52.80
24144;DHT22;12307;50.828;6.080;2024-01-10T13:10:38;15.80;52.90
24144;DHT22;12307;50.828;6.080;2024-01-10T13:13:04;15.80;52.90
24144;DHT22;12307;50.828;6.080;2024-01-10T13:15:30;15.80;52.90
24144;DHT22;12307;50.828;6.080;2024-01-10T13:17:56;15.80;52.90
24144;DHT22;12307;50.828;6.080;2024-01-10T13:20:21;15.80;52.80
24144;DHT22;12307;50.828;6.080;2024-01-10T13:22:47;15.80;52.80
24144;DHT22;12307;50.828;6.080;2024-01-10T13:25:14;15.90;52.80
24144;DHT22;12307;50.828;6.080;2024-01-10T13:27:40;15.90;52.80
24144;DHT22;12307;50.828;6.080;2024-01-10T13:30:07;15.90;52.80
24144;DHT22;12307;50.828;6.080;2024-01-10T13:32:34;15.90;52.70
24144;DHT22;12307;50.828;6.080;2024-01-10T13:34:59;16.00;52.70
24144;DHT22;12307;50.828;6.080;2024-01-10T13:37:25;16.00;52.60
24144;DHT22;12307;50.828;6.080;2024-01-10T13:39:54;16.00;52.40
24144;DHT22;12307;50.828;6.080;2024-01-10T13:42:21;16.00;52.40
24144;DHT22;12307;50.828;6.080;2024-01-10T13:44:47;16.10;52.50
24144;DHT22;12307;50.828;6.080;2024-01-10T13:47:13;16.10;52.40
24144;DHT22;12307;50.828;6.080;2024-01-10T13:49:38;16.10;52.40
24144;DHT22;12307;50.828;6.080;2024-01-10T13:52:05;16.10;52.50
24144;DHT22;12307;50.828;6.080;2024-01-10T13:54:30;16.10;52.50
24144;DHT22;12307;50.828;6.080;2024-01-10T13:56:56;16.10;52.60
24144;DHT22;12307;50.828;6.080;2024-01-10T13:59:24;16.20;52.60
24144;DHT22;12307;50.828;6.080;2024-01-10T14:01:49;16.20;52.50
24144;DHT22;12307;50.828;6.080;2024-01-10T14:04:15;16.20;52.50
24144;DHT22;12307;50.828;6.080;2024-01-10T14:06:41;16.20;52.50
24144;DHT22;12307;50.828;6.080;2024-01-10T14:09:07;16.20;52.50
24144;DHT22;12307;50.828;6.080;2024-01-10T14:11:35;16.20;52.50
24144;DHT22;12307;50.828;6.080;2024-01-10T14:14:01;16.20;52.40
24144;DHT22;12307;50.828;6.080;2024-01-10T14:16:28;16.20;52.40
24144;DHT22;12307;50.828;6.080;2024-01-10T14:18:54;16.30;52.30
24144;DHT22;12307;50.828;6.080;2024-01-10T14:21:21;16.30;52.30
24144;DHT22;12307;50.828;6.080;2024-01-10T14:23:47;16.30;52.30
24144;DHT22;12307;50.828;6.080;2024-01-10T14:26:13;16.30;52.30
24144;DHT22;12307;50.828;6.080;2024-01-10T14:28:39;16.30;52.30
24144;DHT22;12307;50.828;6.080;2024-01-10T14:31:05;16.30;52.30
24144;DHT22;12307;50.828;6.080;2024-01-10T14:33:32;16.30;52.30
24144;DHT22;12307;50.828;6.080;2024-01-10T14:36:00;16.30;52.30
24144;DHT22;12307;50.828;6.080;2024-01-10T14:38:26;16.30;52.20
24144;DHT22;12307;50.828;6.080;2024-01-10T14:40:52;16.30;52.20
24144;DHT22;12307;50.828;6.080;2024-01-10T14:43:17;16.30;52.20
24144;DHT22;12307;50.828;6.080;2024-01-10T14:45:43;16.30;52.20
24144;DHT22;12307;50.828;6.080;2024-01-10T14:48:09;16.30;52.20
24144;DHT22;12307;50.828;6.080;2024-01-10T14:50:36;16.30;52.20
24144;DHT22;12307;50.828;6.080;2024-01-10T14:53:02;16.30;52.20
24144;DHT22;12307;50.828;6.080;2024-01-10T14:55:28;16.30;52.20
24144;DHT22;12307;50.828;6.080;2024-01-10T14:57:54;16.30;52.30
24144;DHT22;12307;50.828;6.080;2024-01-10T15:00:20;16.30;52.30
24144;DHT22;12307;50.828;6.080;2024-01-10T15:02:46;16.30;52.30
24144;DHT22;12307;50.828;6.080;2024-01-10T15:05:12;16.20;52.30
24144;DHT22;12307;50.828;6.080;2024-01-10T15:07:41;16.20;52.40
24144;DHT22;12307;50.828;6.080;2024-01-10T15:10:08;16.20;52.40
24144;DHT22;12307;50.828;6.080;2024-01-10T15:12:34;16.10;52.40
24144;DHT22;12307;50.828;6.080;2024-01-10T15:14:59;16.10;52.50
24144;DHT22;12307;50.828;6.080;2024-01-10T15:17:26;16.10;53.20
24144;DHT22;12307;50.828;6.080;2024-01-10T15:19:52;16.10;52.60
24144;DHT22;12307;50.828;6.080;2024-01-10T15:22:18;16.00;52.60
24144;DHT22;12307;50.828;6.080;2024-01-10T15:24:45;16.00;52.60
24144;DHT22;12307;50.828;6.080;2024-01-10T15:27:11;16.00;52.70